Port Saunders, Canada
Current Conditions -  °F | °C
As of 6:01 AM on Sunday 26 Oct 2014 (Local Time) from CWDH Reporting Station
Scattered Clouds Scattered Clouds  
Wind Chill: 32°   Ceiling: Unl
Heat Index: 40°   Visibility: 9mi
Dew Point: 32°   Wind: 13mph
Humidity: 74%   Direction: 60°ENE
Pressure: 29.6"   Gusts: NA
Location:  50.65°N, 57.27°W
Report Text: CWDH 260801Z AUTO 06011KT 9SM SCT018 04/M00 A2960 RMK T00421001 WSI/SWOB
Loading
Personal Weather Stations






























Interactive Weather Map New forecast layout! Learn more

10-Day Weather Forecast

Advertisements
Track Severe Weather on mobile